Time;durP1;ratioP1;P1;durP2;ratioP2;P2;SDS_P1;SDS_P2;PMS_P1;PMS_P2;Temp;Humidity;BMP_temperature;BMP_pressure;BME280_temperature;BME280_humidity;BME280_pressure;Samples;Min_cycle;Max_cycle;Signal;HPM_P1;HPM_P2
2021/03/20 00:00:29;;;;;;;11.73;9.73;;;;;;;;;;5013499;28;20243;-70
2021/03/20 00:02:55;;;;;;;12.63;9.83;;;;;;;;;;5018640;28;20225;-70
2021/03/20 00:05:21;;;;;;;11.63;9.37;;;;;;;;;;5010950;28;20190;-70
2021/03/20 00:07:48;;;;;;;14.20;10.03;;;;;;;;;;4995291;28;20194;-70
2021/03/20 00:10:16;;;;;;;11.83;9.60;;;;;;;;;;4987561;28;20199;-71
2021/03/20 00:12:43;;;;;;;11.87;9.37;;;;;;;;;;5003860;28;20200;-68
2021/03/20 00:15:10;;;;;;;13.37;10.07;;;;;;;;;;5011179;28;20750;-69
2021/03/20 00:17:36;;;;;;;11.70;10.40;;;;;;;;;;5011452;28;20212;-71
2021/03/20 00:20:02;;;;;;;14.23;10.43;;;;;;;;;;5009340;28;20258;-70
2021/03/20 00:22:30;;;;;;;12.30;10.40;;;;;;;;;;5009136;28;20282;-68
2021/03/20 00:24:56;;;;;;;12.47;9.10;;;;;;;;;;5005522;28;20242;-70
2021/03/20 00:27:22;;;;;;;13.67;10.03;;;;;;;;;;5006826;28;20194;-70
2021/03/20 00:29:48;;;;;;;11.83;9.67;;;;;;;;;;5008676;28;20733;-68
2021/03/20 00:32:14;;;;;;;12.40;9.80;;;;;;;;;;5008619;28;20246;-70
2021/03/20 00:34:40;;;;;;;12.73;10.40;;;;;;;;;;5008518;28;20189;-70
2021/03/20 00:37:07;;;;;;;11.87;9.63;;;;;;;;;;5019397;28;20688;-70
2021/03/20 00:39:33;;;;;;;9.73;8.70;;;;;;;;;;4999431;28;20214;-71
2021/03/20 00:41:59;;;;;;;11.23;9.00;;;;;;;;;;5014769;28;20591;-68
2021/03/20 00:44:25;;;;;;;10.70;8.80;;;;;;;;;;5000590;28;20206;-70
2021/03/20 00:46:51;;;;;;;11.30;8.97;;;;;;;;;;5017189;28;20274;-70
2021/03/20 00:49:17;;;;;;;11.93;9.20;;;;;;;;;;4997018;28;20194;-70
2021/03/20 00:51:43;;;;;;;9.60;8.13;;;;;;;;;;5000316;28;20208;-70
2021/03/20 00:54:09;;;;;;;11.90;9.27;;;;;;;;;;5006373;28;20199;-70
2021/03/20 00:56:35;;;;;;;12.50;9.50;;;;;;;;;;4999043;28;20261;-70
2021/03/20 00:59:01;;;;;;;11.50;9.37;;;;;;;;;;5015801;28;20562;-70
2021/03/20 01:01:27;;;;;;;10.87;9.17;;;;;;;;;;5005498;28;20410;-70
2021/03/20 01:03:53;;;;;;;14.13;10.50;;;;;;;;;;5029830;28;20204;-70
2021/03/20 01:06:23;;;;;;;11.40;9.17;;;;;;;;;;5023199;28;20209;-68
2021/03/20 01:08:49;;;;;;;10.17;8.87;;;;;;;;;;5017506;28;20186;-68
2021/03/20 01:11:15;;;;;;;11.70;9.17;;;;;;;;;;5019009;28;20209;-68
2021/03/20 01:13:42;;;;;;;10.67;8.20;;;;;;;;;;5016941;28;20273;-68
2021/03/20 01:16:09;;;;;;;13.43;9.40;;;;;;;;;;5004438;28;20195;-68
2021/03/20 01:18:35;;;;;;;13.87;9.30;;;;;;;;;;5023404;28;20182;-69
2021/03/20 01:21:01;;;;;;;15.53;10.10;;;;;;;;;;5019309;28;20207;-69
2021/03/20 01:23:27;;;;;;;11.87;9.23;;;;;;;;;;5022751;28;20210;-69
2021/03/20 01:25:53;;;;;;;10.53;8.83;;;;;;;;;;5008017;28;20186;-68
2021/03/20 01:28:23;;;;;;;9.80;8.80;;;;;;;;;;5001761;28;20199;-69
2021/03/20 01:30:49;;;;;;;11.47;9.03;;;;;;;;;;5013455;28;20599;-69
2021/03/20 01:33:15;;;;;;;10.43;8.57;;;;;;;;;;5018754;28;20222;-69
2021/03/20 01:35:41;;;;;;;9.70;7.97;;;;;;;;;;5017900;28;20198;-68
2021/03/20 01:38:08;;;;;;;10.17;8.37;;;;;;;;;;5002416;28;20359;-68
2021/03/20 01:40:45;;;;;;;10.20;8.40;;;;;;;;;;5000485;28;20192;-69
2021/03/20 01:43:15;;;;;;;9.17;8.27;;;;;;;;;;5003042;28;20679;-69
2021/03/20 01:45:42;;;;;;;8.10;7.30;;;;;;;;;;5023538;28;20198;-69
2021/03/20 01:48:18;;;;;;;9.83;8.30;;;;;;;;;;4997982;28;20808;-68
2021/03/20 01:51:00;;;;;;;8.50;7.60;;;;;;;;;;4999978;28;20189;-69
2021/03/20 01:53:32;;;;;;;9.77;7.97;;;;;;;;;;5014981;28;20209;-69
2021/03/20 01:55:59;;;;;;;9.40;7.60;;;;;;;;;;5002846;28;20187;-69
2021/03/20 01:58:26;;;;;;;9.03;7.80;;;;;;;;;;5018769;28;20188;-68
2021/03/20 02:00:58;;;;;;;9.57;8.10;;;;;;;;;;4993186;28;20247;-68
2021/03/20 02:03:27;;;;;;;9.87;7.70;;;;;;;;;;5016457;28;20203;-68
2021/03/20 02:05:53;;;;;;;8.50;7.67;;;;;;;;;;4996054;28;20204;-69
2021/03/20 02:08:19;;;;;;;11.40;8.47;;;;;;;;;;5021749;28;20184;-69
2021/03/20 02:10:47;;;;;;;10.20;8.00;;;;;;;;;;5005828;28;20199;-69
2021/03/20 02:13:15;;;;;;;8.60;7.63;;;;;;;;;;5017892;28;20211;-68
2021/03/20 02:15:45;;;;;;;12.40;8.47;;;;;;;;;;5016847;28;20216;-68
2021/03/20 02:18:21;;;;;;;9.83;8.10;;;;;;;;;;5015471;28;20220;-69
2021/03/20 02:21:08;;;;;;;9.43;7.70;;;;;;;;;;5002331;28;20274;-69
2021/03/20 02:23:34;;;;;;;9.80;7.47;;;;;;;;;;5022241;28;20202;-68
2021/03/20 02:26:00;;;;;;;8.53;7.63;;;;;;;;;;5019615;28;20733;-69
2021/03/20 02:28:26;;;;;;;8.67;7.17;;;;;;;;;;4998069;28;20370;-68
2021/03/20 02:31:11;;;;;;;9.47;7.70;;;;;;;;;;5018607;28;20188;-69
2021/03/20 02:33:56;;;;;;;9.77;8.37;;;;;;;;;;5002517;28;20619;-68
2021/03/20 02:36:33;;;;;;;8.57;7.77;;;;;;;;;;5018802;28;20208;-68
2021/03/20 02:39:03;;;;;;;12.80;8.77;;;;;;;;;;5021713;28;20183;-68
2021/03/20 02:41:36;;;;;;;9.73;7.80;;;;;;;;;;5019628;28;20219;-68
2021/03/20 02:44:32;;;;;;;10.57;8.77;;;;;;;;;;5011155;28;20205;-68
2021/03/20 02:47:02;;;;;;;10.20;8.30;;;;;;;;;;4954334;28;20758;-68
2021/03/20 02:49:28;;;;;;;9.27;7.27;;;;;;;;;;4956978;28;20187;-68
2021/03/20 02:51:58;;;;;;;9.83;8.33;;;;;;;;;;4957588;28;20226;-69
2021/03/20 02:54:28;;;;;;;8.73;7.33;;;;;;;;;;4955778;28;20464;-68
2021/03/20 02:56:59;;;;;;;9.37;8.17;;;;;;;;;;4957012;28;20706;-69
2021/03/20 02:59:29;;;;;;;10.77;8.40;;;;;;;;;;4955262;28;20251;-68
2021/03/20 03:01:57;;;;;;;8.57;7.67;;;;;;;;;;4960452;28;20218;-68
2021/03/20 03:04:24;;;;;;;9.23;7.33;;;;;;;;;;4958945;28;20194;-68
2021/03/20 03:07:06;;;;;;;10.27;8.63;;;;;;;;;;4954939;28;20802;-69
2021/03/20 03:09:48;;;;;;;9.50;7.60;;;;;;;;;;4956480;28;20198;-69
2021/03/20 03:12:15;;;;;;;11.03;8.17;;;;;;;;;;4950417;28;20607;-69
2021/03/20 03:14:41;;;;;;;9.33;8.33;;;;;;;;;;4961034;28;20300;-69
2021/03/20 03:17:08;;;;;;;9.57;8.43;;;;;;;;;;4950603;28;20234;-69
2021/03/20 03:19:37;;;;;;;10.40;8.40;;;;;;;;;;4956452;28;20193;-69
2021/03/20 03:22:05;;;;;;;8.77;7.87;;;;;;;;;;4956569;28;20210;-69
2021/03/20 03:24:31;;;;;;;12.20;9.30;;;;;;;;;;5009938;28;20251;-69
2021/03/20 03:26:59;;;;;;;11.03;9.33;;;;;;;;;;5014449;28;20185;-68
2021/03/20 03:29:26;;;;;;;10.87;9.03;;;;;;;;;;5014017;28;20397;-68
2021/03/20 03:32:13;;;;;;;9.67;8.67;;;;;;;;;;5014366;28;20270;-68
2021/03/20 03:34:48;;;;;;;13.17;9.33;;;;;;;;;;4986284;28;20199;-69
2021/03/20 03:37:35;;;;;;;10.27;9.17;;;;;;;;;;5021183;28;20222;-68
2021/03/20 03:40:27;;;;;;;9.97;8.70;;;;;;;;;;5012992;28;20184;-69
2021/03/20 03:42:53;;;;;;;10.53;9.43;;;;;;;;;;4997969;28;20246;-68
2021/03/20 03:45:20;;;;;;;10.27;8.63;;;;;;;;;;5017021;28;20196;-68
2021/03/20 03:47:47;;;;;;;10.40;8.53;;;;;;;;;;4997405;28;20184;-69
2021/03/20 03:50:15;;;;;;;10.67;9.57;;;;;;;;;;4995704;28;20197;-68
2021/03/20 03:52:41;;;;;;;9.57;8.47;;;;;;;;;;4998429;28;20208;-68
2021/03/20 03:55:08;;;;;;;10.17;8.77;;;;;;;;;;5002766;28;20204;-68
2021/03/20 03:57:41;;;;;;;10.33;9.30;;;;;;;;;;5000874;28;20310;-69
2021/03/20 04:00:26;;;;;;;11.63;8.93;;;;;;;;;;5018532;28;20195;-69
2021/03/20 04:02:52;;;;;;;10.00;9.00;;;;;;;;;;5012627;28;20706;-69
2021/03/20 04:05:29;;;;;;;11.60;9.97;;;;;;;;;;4991396;28;20284;-69
2021/03/20 04:08:07;;;;;;;12.00;9.30;;;;;;;;;;5011900;28;20246;-68
2021/03/20 04:10:33;;;;;;;11.17;9.60;;;;;;;;;;5007389;28;20201;-69
2021/03/20 04:13:18;;;;;;;10.13;9.13;;;;;;;;;;5017024;28;20213;-69
2021/03/20 04:15:58;;;;;;;11.20;9.97;;;;;;;;;;5018235;28;20192;-68
2021/03/20 04:18:24;;;;;;;11.70;9.80;;;;;;;;;;5001977;28;20230;-68
2021/03/20 04:21:07;;;;;;;10.90;9.67;;;;;;;;;;5002363;28;20562;-68
2021/03/20 04:23:36;;;;;;;11.43;10.23;;;;;;;;;;5018434;28;20562;-69
2021/03/20 04:26:06;;;;;;;12.00;10.50;;;;;;;;;;5001623;28;20360;-69
2021/03/20 04:28:41;;;;;;;12.27;10.47;;;;;;;;;;5018917;28;20185;-68
2021/03/20 04:31:15;;;;;;;13.97;11.90;;;;;;;;;;5013919;28;20721;-68
2021/03/20 04:33:47;;;;;;;11.50;10.00;;;;;;;;;;5020057;28;20193;-68
2021/03/20 04:36:20;;;;;;;9.93;9.03;;;;;;;;;;5020533;28;20196;-68
2021/03/20 04:38:47;;;;;;;12.37;9.37;;;;;;;;;;5018568;28;20279;-69
2021/03/20 04:41:14;;;;;;;12.33;9.20;;;;;;;;;;5025180;28;20181;-68
2021/03/20 04:43:40;;;;;;;10.37;9.37;;;;;;;;;;5016718;28;20200;-69
2021/03/20 04:46:08;;;;;;;9.90;8.90;;;;;;;;;;5017459;28;20191;-68
2021/03/20 04:48:39;;;;;;;10.97;9.13;;;;;;;;;;5004312;28;20268;-68
2021/03/20 04:51:08;;;;;;;9.43;8.40;;;;;;;;;;5001532;28;20187;-69
2021/03/20 04:53:35;;;;;;;11.47;9.43;;;;;;;;;;5020849;28;20289;-69
2021/03/20 04:56:02;;;;;;;10.13;9.00;;;;;;;;;;5021931;28;20211;-69
2021/03/20 04:58:50;;;;;;;9.70;8.07;;;;;;;;;;4996643;28;20192;-69
2021/03/20 05:01:22;;;;;;;10.40;9.30;;;;;;;;;;5015177;28;20638;-68
2021/03/20 05:03:51;;;;;;;9.97;8.97;;;;;;;;;;5025946;28;20188;-68
2021/03/20 05:06:22;;;;;;;9.33;8.37;;;;;;;;;;5024669;28;20187;-68
2021/03/20 05:08:53;;;;;;;10.57;9.00;;;;;;;;;;5020372;28;20208;-69
2021/03/20 05:11:25;;;;;;;10.30;9.10;;;;;;;;;;5001272;28;20206;-68
2021/03/20 05:14:14;;;;;;;13.00;9.73;;;;;;;;;;5015652;28;20200;-68
2021/03/20 05:16:54;;;;;;;11.57;10.07;;;;;;;;;;5011406;28;20294;-69
2021/03/20 05:19:21;;;;;;;12.87;10.50;;;;;;;;;;5003489;28;20183;-68
2021/03/20 05:21:51;;;;;;;10.00;8.90;;;;;;;;;;5020739;28;20211;-69
2021/03/20 05:24:21;;;;;;;11.27;10.17;;;;;;;;;;5002816;28;20188;-69
2021/03/20 05:26:47;;;;;;;11.10;9.63;;;;;;;;;;5007001;28;20250;-69
2021/03/20 05:29:14;;;;;;;11.93;10.67;;;;;;;;;;5021141;28;20189;-69
2021/03/20 05:31:40;;;;;;;10.50;9.40;;;;;;;;;;5000601;28;20299;-69
2021/03/20 05:34:08;;;;;;;11.30;9.67;;;;;;;;;;5016994;28;20534;-70
2021/03/20 05:36:34;;;;;;;11.53;10.17;;;;;;;;;;5003983;28;20311;-69
2021/03/20 05:39:00;;;;;;;10.73;9.37;;;;;;;;;;5000982;28;20211;-70
2021/03/20 05:41:31;;;;;;;12.07;10.67;;;;;;;;;;5017852;28;20187;-68
2021/03/20 05:44:12;;;;;;;11.00;9.70;;;;;;;;;;5019116;28;20202;-68
2021/03/20 05:46:44;;;;;;;10.63;9.53;;;;;;;;;;5017976;28;20244;-68
2021/03/20 05:49:28;;;;;;;15.17;10.37;;;;;;;;;;5015892;28;20255;-68
2021/03/20 05:52:05;;;;;;;10.90;9.80;;;;;;;;;;5014975;28;20216;-68
2021/03/20 05:54:46;;;;;;;10.80;9.70;;;;;;;;;;5017341;28;20275;-69
2021/03/20 05:57:12;;;;;;;12.27;10.30;;;;;;;;;;5016761;28;20242;-69
2021/03/20 05:59:47;;;;;;;10.47;9.40;;;;;;;;;;5018395;28;20502;-68
2021/03/20 06:02:13;;;;;;;11.53;10.30;;;;;;;;;;4998246;28;20212;-69
2021/03/20 06:04:41;;;;;;;10.20;9.20;;;;;;;;;;5015878;28;20188;-68
2021/03/20 06:07:09;;;;;;;10.97;9.40;;;;;;;;;;5019682;28;20647;-68
2021/03/20 06:09:54;;;;;;;11.13;9.93;;;;;;;;;;5009069;28;20190;-68
2021/03/20 06:12:20;;;;;;;15.67;9.73;;;;;;;;;;4994430;28;20256;-69
2021/03/20 06:15:02;;;;;;;11.07;9.80;;;;;;;;;;4997231;28;20189;-69
2021/03/20 06:17:31;;;;;;;12.47;9.33;;;;;;;;;;5016624;28;20208;-69
2021/03/20 06:20:00;;;;;;;11.83;10.23;;;;;;;;;;5018189;28;20184;-69
2021/03/20 06:22:35;;;;;;;11.27;9.73;;;;;;;;;;5020682;28;20232;-68
2021/03/20 06:25:20;;;;;;;9.57;8.53;;;;;;;;;;5019175;28;20188;-68
2021/03/20 06:27:48;;;;;;;10.37;8.03;;;;;;;;;;5020323;28;20300;-69
2021/03/20 06:30:33;;;;;;;11.00;8.23;;;;;;;;;;5005638;28;20180;-69
2021/03/20 06:33:02;;;;;;;8.80;7.93;;;;;;;;;;5017950;28;20214;-69
2021/03/20 06:35:36;;;;;;;9.97;9.00;;;;;;;;;;5020277;28;20188;-69
2021/03/20 06:38:03;;;;;;;9.10;8.20;;;;;;;;;;5000640;28;20243;-69
2021/03/20 06:40:29;;;;;;;9.40;8.13;;;;;;;;;;5016199;28;20181;-68
2021/03/20 06:42:57;;;;;;;8.57;7.77;;;;;;;;;;5021983;28;20202;-69
2021/03/20 06:45:27;;;;;;;8.93;8.03;;;;;;;;;;5017961;28;20365;-69
2021/03/20 06:48:13;;;;;;;11.47;7.63;;;;;;;;;;5018157;28;20227;-69
2021/03/20 06:50:47;;;;;;;9.30;7.97;;;;;;;;;;5019388;28;20208;-69
2021/03/20 06:53:15;;;;;;;7.90;6.77;;;;;;;;;;5024517;28;20225;-69
2021/03/20 06:55:48;;;;;;;7.67;6.93;;;;;;;;;;5020616;28;20190;-70
2021/03/20 06:58:17;;;;;;;9.50;7.37;;;;;;;;;;5019496;28;20208;-68
2021/03/20 07:00:44;;;;;;;8.93;7.43;;;;;;;;;;5014068;28;20217;-69
2021/03/20 07:03:48;;;;;;;7.73;6.40;;;;;;;;;;5013339;28;20209;-69
2021/03/20 07:06:32;;;;;;;7.47;6.77;;;;;;;;;;4915854;29;20203;-68
2021/03/20 07:09:04;;;;;;;8.37;6.60;;;;;;;;;;4911082;29;20291;-69
2021/03/20 07:11:32;;;;;;;9.30;8.23;;;;;;;;;;4925244;29;20219;-69
2021/03/20 07:14:03;;;;;;;7.03;6.40;;;;;;;;;;4919818;29;20389;-69
2021/03/20 07:16:30;;;;;;;6.03;5.43;;;;;;;;;;4920783;29;20223;-69
2021/03/20 07:19:00;;;;;;;5.67;5.17;;;;;;;;;;4923303;29;20276;-68
2021/03/20 07:21:32;;;;;;;5.87;5.30;;;;;;;;;;4922788;29;20274;-68
2021/03/20 07:23:58;;;;;;;6.90;6.23;;;;;;;;;;4923929;29;20196;-68
2021/03/20 07:26:24;;;;;;;5.73;4.60;;;;;;;;;;4912926;29;20630;-68
2021/03/20 07:28:54;;;;;;;3.93;3.63;;;;;;;;;;4923661;29;20223;-68
2021/03/20 07:31:21;;;;;;;4.60;4.20;;;;;;;;;;4922018;29;20701;-68
2021/03/20 07:33:48;;;;;;;4.37;3.97;;;;;;;;;;4911250;29;20243;-69
2021/03/20 07:36:23;;;;;;;4.63;4.23;;;;;;;;;;4919714;28;20243;-68
2021/03/20 07:39:13;;;;;;;5.00;4.20;;;;;;;;;;5010859;28;20186;-69
2021/03/20 07:41:49;;;;;;;5.90;4.37;;;;;;;;;;4983555;28;20220;-68
2021/03/20 07:44:15;;;;;;;5.13;4.63;;;;;;;;;;5008373;28;20191;-68
2021/03/20 07:46:41;;;;;;;4.53;4.13;;;;;;;;;;5002298;28;20264;-68
2021/03/20 07:49:18;;;;;;;4.67;4.27;;;;;;;;;;4992431;28;20338;-70
2021/03/20 07:51:54;;;;;;;5.90;5.17;;;;;;;;;;5010037;28;20208;-70
2021/03/20 07:54:32;;;;;;;7.20;4.43;;;;;;;;;;5016864;28;20195;-70
2021/03/20 07:57:13;;;;;;;4.33;3.97;;;;;;;;;;4998194;28;20212;-70
2021/03/20 07:59:47;;;;;;;123.60;93.17;;;;;;;;;;5016869;28;20678;-68
2021/03/20 08:02:45;;;;;;;6.47;5.87;;;;;;;;;;5016112;28;20319;-70
2021/03/20 08:05:23;;;;;;;3.60;3.20;;;;;;;;;;4932387;29;20239;-70
2021/03/20 08:07:50;;;;;;;5.13;3.85;;;;;;;;;;4930840;29;20234;-69
2021/03/20 08:10:32;;;;;;;3.55;3.25;;;19.90;49.80;;;;;;4938565;29;20209;-72
2021/03/20 08:13:04;;;;;;;3.63;3.30;;;;;;;;;;4942743;29;20215;-71
2021/03/20 08:15:33;;;;;;;4.43;3.20;;;;;;;;;;4918169;29;20732;-72
2021/03/20 08:18:00;;;;;;;6.85;4.35;;;;;;;;;;4922429;29;20219;-72
2021/03/20 08:20:26;;;;;;;4.95;4.53;;;;;;;;;;4917035;29;20184;-73
2021/03/20 08:23:00;;;;;;;6.65;6.05;;;;;;;;;;4928696;29;20369;-72
2021/03/20 08:25:41;;;;;;;7.07;4.88;;;;;;;;;;4935221;29;20202;-72
2021/03/20 08:28:28;;;;;;;4.25;3.28;;;14.70;47.50;;;;;;4945028;29;20199;-72
2021/03/20 08:30:57;;;;;;;4.68;3.10;;;;;;;;;;4925413;29;20578;-72
2021/03/20 08:33:28;;;;;;;6.93;3.05;;;;;;;;;;4945634;29;20741;-71
2021/03/20 08:36:16;;;;;;;4.07;2.90;;;;;;;;;;4937187;29;20630;-71
2021/03/20 08:38:45;;;;;;;4.15;3.33;;;14.60;43.50;;;;;;4927392;29;20212;-72
2021/03/20 08:41:30;;;;;;;3.42;2.97;;;;;;;;;;4973350;28;20188;-72
2021/03/20 08:44:33;;;;;;;2.90;2.63;;;15.00;43.00;;;;;;5016560;28;20659;-72
2021/03/20 08:47:32;;;;;;;7.82;5.88;;;18.70;38.30;;;;;;5000164;28;20765;-72
2021/03/20 08:50:22;;;;;;;3.42;2.47;;;19.50;33.50;;;;;;4970096;28;20197;-71
2021/03/20 08:52:53;;;;;;;2.55;2.17;;;19.70;31.40;;;;;;5010543;28;20211;-72
2021/03/20 08:55:38;;;;;;;3.83;2.80;;;;;;;;;;4994285;28;20184;-71
2021/03/20 08:58:24;;;;;;;5.00;2.85;;;;;;;;;;5016804;28;20283;-71
2021/03/20 09:01:02;;;;;;;4.60;2.05;;;;;;;;;;5021712;28;20176;-70
2021/03/20 09:03:31;;;;;;;3.47;3.10;;;;;;;;;;5015254;28;20236;-70
2021/03/20 09:06:24;;;;;;;3.63;2.80;;;;;;;;;;5022783;28;20188;-71
2021/03/20 09:08:51;;;;;;;3.20;2.90;;;;;;;;;;5008755;28;20255;-70
2021/03/20 09:11:24;;;;;;;4.45;3.28;;;21.00;30.30;;;;;;5012583;28;20224;-70
2021/03/20 09:13:55;;;;;;;3.88;2.78;;;;;;;;;;5013646;28;20173;-70
2021/03/20 09:16:33;;;;;;;3.90;2.33;;;;;;;;;;5015797;28;20178;-70
2021/03/20 09:19:01;;;;;;;1.83;1.65;;;;;;;;;;5014753;28;20199;-71
2021/03/20 09:21:28;;;;;;;1.77;1.45;;;;;;;;;;5017202;28;20188;-70
2021/03/20 09:23:54;;;;;;;2.58;1.70;;;;;;;;;;5017273;28;20239;-71
2021/03/20 09:26:37;;;;;;;2.10;1.80;;;;;;;;;;5022043;28;20632;-71
2021/03/20 09:29:08;;;;;;;3.17;2.10;;;;;;;;;;5018025;28;20556;-69
2021/03/20 09:31:35;;;;;;;3.45;1.77;;;;;;;;;;5017278;28;20200;-70
2021/03/20 09:34:18;;;;;;;3.35;2.22;;;;;;;;;;5000086;28;20188;-70
2021/03/20 09:36:47;;;;;;;3.17;2.00;;;;;;;;;;5026323;28;20267;-69
2021/03/20 09:39:33;;;;;;;3.20;2.67;;;;;;;;;;4996623;28;20181;-70
2021/03/20 09:41:59;;;;;;;4.95;2.78;;;;;;;;;;5015668;28;20204;-70
2021/03/20 09:44:26;;;;;;;3.35;2.83;;;;;;;;;;5016437;28;20185;-70
2021/03/20 09:46:52;;;;;;;4.20;2.45;;;;;;;;;;5015717;28;20737;-70
2021/03/20 09:49:18;;;;;;;2.65;2.45;;;;;;;;;;5015201;28;20193;-70
2021/03/20 09:51:59;;;;;;;3.38;2.22;;;;;;;;;;5004950;28;20220;-71
2021/03/20 09:54:32;;;;;;;4.32;3.67;;;20.10;30.40;;;;;;5019226;28;20189;-71
2021/03/20 09:57:11;;;;;;;9.93;5.05;;;;;;;;;;4999309;28;20205;-70
2021/03/20 09:59:37;;;;;;;2.50;1.85;;;;;;;;;;5017512;28;20189;-70
2021/03/20 10:02:12;;;;;;;1.88;1.63;;;;;;;;;;5013850;28;20201;-70
2021/03/20 10:04:47;;;;;;;2.28;1.60;;;;;;;;;;5017288;28;20767;-70
2021/03/20 10:07:22;;;;;;;7.63;3.05;;;;;;;;;;5016402;28;20193;-70
2021/03/20 10:09:54;;;;;;;3.88;2.17;;;;;;;;;;4994642;28;20245;-70
2021/03/20 10:12:22;;;;;;;2.45;1.50;;;;;;;;;;5018127;28;20220;-69
2021/03/20 10:15:00;;;;;;;2.63;1.55;;;;;;;;;;5018841;28;20275;-70
2021/03/20 10:17:28;;;;;;;1.90;1.55;;;;;;;;;;5017670;28;20585;-70
2021/03/20 10:19:55;;;;;;;2.88;1.30;;;;;;;;;;5014031;28;20177;-70
2021/03/20 10:22:29;;;;;;;1.70;1.00;;;;;;;;;;5017093;28;20748;-70
2021/03/20 10:24:55;;;;;;;3.00;1.00;;;;;;;;;;5021392;28;20189;-69
2021/03/20 10:27:29;;;;;;;1.20;1.00;;;;;;;;;;5012849;28;20185;-69
2021/03/20 10:30:10;;;;;;;1.30;1.15;;;;;;;;;;5015886;28;20181;-70
2021/03/20 10:32:36;;;;;;;2.70;1.60;;;;;;;;;;5012965;28;20204;-70
2021/03/20 10:35:05;;;;;;;1.75;1.30;;;;;;;;;;5018652;28;20265;-70
2021/03/20 10:37:33;;;;;;;2.17;1.27;;;;;;;;;;5016356;28;20213;-69
2021/03/20 10:40:22;;;;;;;1.25;1.00;;;;;;;;;;5019204;28;20200;-69
2021/03/20 10:42:50;;;;;;;2.45;1.20;;;;;;;;;;5005378;28;20282;-70
2021/03/20 10:45:19;;;;;;;2.20;1.30;;;;;;;;;;4998887;28;20177;-69
2021/03/20 10:47:46;;;;;;;3.47;1.65;;;;;;;;;;5017649;28;20256;-69
2021/03/20 10:50:18;;;;;;;1.27;1.00;;;;;;;;;;5016870;28;20652;-69
2021/03/20 10:52:45;;;;;;;1.92;1.45;;;;;;;;;;5004011;28;20254;-70
2021/03/20 10:55:18;;;;;;;4.85;1.58;;;;;;;;;;5013467;28;20564;-69
2021/03/20 10:57:45;;;;;;;2.00;1.50;;;;;;;;;;5006836;28;20213;-69
2021/03/20 11:00:19;;;;;;;1.85;0.90;;;;;;;;;;5020475;28;20188;-70
2021/03/20 11:02:45;;;;;;;1.80;1.17;;;;;;;;;;5005775;28;20196;-69
2021/03/20 11:05:11;;;;;;;1.77;1.05;;;;;;;;;;5014391;28;20317;-69
2021/03/20 11:07:45;;;;;;;3.03;1.17;;;;;;;;;;5009067;28;20252;-69
2021/03/20 11:10:11;;;;;;;2.78;1.55;;;;;;;;;;5014752;28;20284;-69
2021/03/20 11:12:37;;;;;;;1.70;1.23;;;;;;;;;;4994186;28;20245;-69
2021/03/20 11:15:04;;;;;;;1.63;1.10;;;;;;;;;;5014729;28;20752;-70
2021/03/20 11:17:32;;;;;;;1.92;1.25;;;;;;;;;;4993323;28;20290;-69
2021/03/20 11:19:59;;;;;;;2.00;1.10;;;;;;;;;;5010144;28;20208;-69
2021/03/20 11:22:26;;;;;;;2.05;1.67;;;;;;;;;;5014610;28;20228;-69
2021/03/20 11:24:54;;;;;;;2.72;1.20;;;;;;;;;;5008097;28;20188;-70
2021/03/20 11:27:20;;;;;;;2.05;1.30;;;;;;;;;;5019431;28;20219;-70
2021/03/20 11:29:52;;;;;;;1.92;1.50;;;;;;;;;;5009533;28;20202;-69
2021/03/20 11:32:23;;;;;;;8.93;1.60;;;;;;;;;;5007521;28;20223;-70
2021/03/20 11:34:54;;;;;;;2.08;1.33;;;;;;;;;;4991001;28;20185;-69
2021/03/20 11:37:21;;;;;;;1.90;1.52;;;;;;;;;;5014422;28;20220;-69
2021/03/20 11:39:57;;;;;;;3.92;1.33;;;;;;;;;;5006968;28;20200;-69
2021/03/20 11:42:26;;;;;;;4.38;1.20;;;;;;;;;;5012172;28;20235;-69
2021/03/20 11:44:52;;;;;;;3.65;1.77;;;;;;;;;;5010686;28;20237;-70
2021/03/20 11:47:20;;;;;;;5.80;2.50;;;;;;;;;;4998421;28;20279;-70
2021/03/20 11:49:48;;;;;;;2.95;2.00;;;;;;;;;;5010512;28;20180;-70
2021/03/20 11:52:40;;;;;;;2.35;1.20;;;;;;;;;;5007110;28;20301;-69
2021/03/20 11:55:13;;;;;;;4.32;1.58;;;;;;;;;;4953084;28;20757;-70
2021/03/20 11:57:40;;;;;;;4.50;1.67;;;;;;;;;;4960038;28;20206;-70
2021/03/20 12:00:24;;;;;;;1.73;1.10;;;;;;;;;;4950351;28;20251;-69
2021/03/20 12:02:51;;;;;;;3.40;1.40;;;;;;;;;;4951203;28;20309;-70
2021/03/20 12:05:18;;;;;;;2.75;1.10;;;;;;;;;;4946427;29;20677;-70
2021/03/20 12:07:45;;;;;;;3.42;1.60;;;;;;;;;;4936344;28;20183;-69
2021/03/20 12:10:21;;;;;;;1.23;1.13;;;;;;;;;;4947935;28;20195;-70
2021/03/20 12:12:48;;;;;;;1.42;1.15;;;;;;;;;;4951938;28;20214;-70
2021/03/20 12:15:22;;;;;;;1.38;1.15;;;;;;;;;;4950627;28;20186;-70
2021/03/20 12:17:49;;;;;;;2.70;1.35;;;;;;;;;;4957125;28;20205;-69
2021/03/20 12:20:29;;;;;;;3.33;1.60;;;;;;;;;;4948579;28;20194;-69
2021/03/20 12:22:55;;;;;;;2.13;1.60;;;;;;;;;;4949981;28;20237;-70
2021/03/20 12:25:21;;;;;;;3.72;1.40;;;;;;;;;;4952912;28;20742;-70
2021/03/20 12:27:48;;;;;;;1.60;1.30;;;;;;;;;;4952677;28;20217;-70
2021/03/20 12:30:14;;;;;;;4.18;2.58;;;;;;;;;;4951173;28;20180;-70
2021/03/20 12:32:43;;;;;;;2.22;1.52;;;;;;;;;;5003404;28;20869;-70
2021/03/20 12:35:36;;;;;;;3.72;1.88;;;;;;;;;;5012825;28;20629;-69
2021/03/20 12:38:10;;;;;;;3.03;1.50;;;;;;;;;;5007584;28;20221;-70
2021/03/20 12:40:36;;;;;;;4.15;1.67;;;;;;;;;;5012203;28;20177;-71
2021/03/20 12:43:06;;;;;;;2.83;1.77;;;;;;;;;;5004601;28;20251;-70
2021/03/20 12:45:34;;;;;;;4.95;3.20;;;;;;;;;;4999412;28;20185;-71
2021/03/20 12:48:00;;;;;;;2.03;1.67;;;;;;;;;;4999337;28;20185;-71
2021/03/20 12:50:26;;;;;;;2.97;2.45;;;;;;;;;;5012761;28;20199;-70
2021/03/20 12:52:52;;;;;;;4.32;1.75;;;;;;;;;;5017610;28;20232;-70
2021/03/20 12:55:18;;;;;;;2.20;1.98;;;;;;;;;;5017264;28;20193;-71
2021/03/20 12:57:44;;;;;;;2.65;1.70;;;;;;;;;;5018879;28;20212;-70
2021/03/20 13:00:17;;;;;;;3.70;2.00;;;;;;;;;;5014023;28;20192;-70
2021/03/20 13:02:43;;;;;;;2.80;1.70;;;;;;;;;;4995796;28;20197;-71
2021/03/20 13:05:14;;;;;;;2.83;1.38;;;;;;;;;;5018033;28;20188;-70
2021/03/20 13:07:40;;;;;;;3.05;1.60;;;;;;;;;;4996158;28;20185;-71
2021/03/20 13:10:06;;;;;;;7.20;2.10;;;;;;;;;;5001171;28;20205;-71
2021/03/20 13:12:32;;;;;;;2.83;1.83;;;;;;;;;;4993952;28;20253;-71
2021/03/20 13:14:58;;;;;;;2.13;1.65;;;;;;;;;;5015294;28;20186;-70
2021/03/20 13:17:24;;;;;;;2.28;1.80;;;;;;;;;;5016927;28;20288;-71
2021/03/20 13:19:50;;;;;;;2.33;1.77;;;;;;;;;;5002823;28;20818;-71
2021/03/20 13:22:16;;;;;;;2.40;1.60;;;;;;;;;;5011794;28;20228;-70
2021/03/20 13:24:42;;;;;;;2.78;1.80;;;;;;;;;;5000739;28;20704;-70
2021/03/20 13:27:08;;;;;;;4.30;2.05;;;;;;;;;;5016797;28;20200;-70
2021/03/20 13:29:34;;;;;;;2.10;1.90;;;;;;;;;;5012629;28;20703;-70
2021/03/20 13:32:01;;;;;;;2.47;1.90;;;;;;;;;;4998089;28;20201;-70
2021/03/20 13:34:26;;;;;;;2.83;2.05;;;;;;;;;;5015837;28;20185;-69
2021/03/20 13:36:53;;;;;;;5.50;3.22;;;;;;;;;;4997233;28;20209;-69
2021/03/20 13:39:19;;;;;;;2.08;1.75;;;;;;;;;;4995709;28;20177;-70
2021/03/20 13:41:45;;;;;;;4.63;3.30;;;;;;;;;;5013653;28;20205;-70
2021/03/20 13:44:11;;;;;;;4.45;2.47;;;;;;;;;;4994921;28;20663;-70
2021/03/20 13:46:37;;;;;;;3.17;2.10;;;;;;;;;;5013475;28;20182;-70
2021/03/20 13:49:05;;;;;;;3.83;2.35;;;;;;;;;;5010733;28;20188;-69
2021/03/20 13:51:31;;;;;;;3.13;2.25;;;;;;;;;;5017389;28;20250;-70
2021/03/20 13:53:57;;;;;;;3.65;3.35;;;;;;;;;;5014035;28;20187;-70
2021/03/20 13:56:23;;;;;;;2.50;2.30;;;;;;;;;;5016611;28;20558;-70
2021/03/20 13:58:49;;;;;;;2.58;2.30;;;;;;;;;;5011379;28;20193;-69
2021/03/20 14:01:15;;;;;;;3.55;2.35;;;;;;;;;;5015772;28;20208;-70
2021/03/20 14:03:41;;;;;;;2.83;2.25;;;;;;;;;;4995420;28;20280;-70
2021/03/20 14:06:07;;;;;;;3.08;2.75;;;;;;;;;;5013511;28;20184;-70
2021/03/20 14:08:33;;;;;;;3.90;3.03;;;;;;;;;;4998729;28;20188;-69
2021/03/20 14:11:00;;;;;;;3.83;3.53;;;;;;;;;;5018125;28;20203;-70
2021/03/20 14:13:27;;;;;;;4.00;2.88;;;;;;;;;;5012663;28;20204;-70
2021/03/20 14:15:53;;;;;;;5.53;3.28;;;;;;;;;;5013579;28;20173;-71
2021/03/20 14:18:21;;;;;;;6.28;5.68;;;;;;;;;;4996509;28;20216;-70
2021/03/20 14:20:48;;;;;;;6.38;3.60;;;;;;;;;;5010111;28;20181;-70
2021/03/20 14:23:16;;;;;;;5.70;4.20;;;;;;;;;;5015561;28;20208;-70
2021/03/20 14:25:42;;;;;;;6.53;5.07;;;;;;;;;;4995692;28;20177;-70
2021/03/20 14:28:09;;;;;;;3.47;3.17;;;;;;;;;;5008579;28;20186;-70
2021/03/20 14:30:38;;;;;;;3.97;3.60;;;;;;;;;;4991119;28;20265;-70
2021/03/20 14:33:04;;;;;;;15.38;8.25;;;;;;;;;;5014824;28;20259;-71
2021/03/20 14:35:31;;;;;;;10.75;7.57;;;;;;;;;;4995000;28;20204;-70
2021/03/20 14:37:57;;;;;;;5.88;5.28;;;;;;;;;;5010118;28;20211;-70
2021/03/20 14:40:25;;;;;;;4.05;3.50;;;;;;;;;;5004367;28;20236;-71
2021/03/20 14:42:51;;;;;;;3.65;3.20;;;;;;;;;;5010846;28;20227;-70
2021/03/20 14:45:17;;;;;;;5.60;3.80;;;;;;;;;;5015653;28;20188;-70
2021/03/20 14:47:43;;;;;;;3.53;3.22;;;;;;;;;;5008653;28;20181;-70
2021/03/20 14:50:11;;;;;;;6.00;3.75;;;;;;;;;;5016448;28;20188;-70
2021/03/20 14:52:37;;;;;;;3.65;3.30;;;;;;;;;;4997576;28;20300;-70
2021/03/20 14:55:04;;;;;;;4.03;3.72;;;;;;;;;;5009501;28;20609;-70